createdAt,value
2018-05-06T00:00:38.645Z,98707.53
2018-05-06T00:01:41.408Z,98707.59
2018-05-06T00:02:44.143Z,98707.53
2018-05-06T00:03:46.938Z,98711.50
2018-05-06T00:04:49.710Z,98704.78
2018-05-06T00:05:52.482Z,98705.66
2018-05-06T00:06:55.576Z,98706.81
2018-05-06T00:07:58.351Z,98704.34
2018-05-06T00:09:01.265Z,98701.28
2018-05-06T00:10:04.021Z,98706.70
2018-05-06T00:11:06.812Z,98707.92
2018-05-06T00:12:09.606Z,98704.83
2018-05-06T00:13:12.809Z,98707.92
2018-05-06T00:14:15.881Z,98714.15
2018-05-06T00:15:18.678Z,98718.04
2018-05-06T00:16:22.126Z,98716.88
2018-05-06T00:17:25.541Z,98712.33
2018-05-06T00:18:28.445Z,98716.36
2018-05-06T00:19:31.372Z,98717.08
2018-05-06T00:20:34.140Z,98717.34
2018-05-06T00:21:36.895Z,98720.95
2018-05-06T00:22:39.670Z,98716.85
2018-05-06T00:23:42.400Z,98715.52
2018-05-06T00:24:45.193Z,98715.52
2018-05-06T00:25:47.979Z,98710.18
2018-05-06T00:26:50.751Z,98717.30
2018-05-06T00:27:53.595Z,98712.77
2018-05-06T00:28:56.334Z,98711.53
2018-05-06T00:30:00.023Z,98707.94
2018-05-06T00:31:03.561Z,98707.03
2018-05-06T00:32:06.281Z,98706.30
2018-05-06T00:33:09.020Z,98709.22
2018-05-06T00:34:11.751Z,98706.41
2018-05-06T00:35:14.470Z,98706.09
2018-05-06T00:36:18.089Z,98700.63
2018-05-06T00:37:21.615Z,98706.08
2018-05-06T00:38:25.059Z,98707.02
2018-05-06T00:39:28.886Z,98706.80
2018-05-06T00:40:32.223Z,98710.55
2018-05-06T00:41:35.004Z,98707.63
2018-05-06T00:42:37.842Z,98705.31
2018-05-06T00:43:40.573Z,98709.12
2018-05-06T00:44:43.394Z,98709.28
2018-05-06T00:45:46.147Z,98711.32
2018-05-06T00:46:50.465Z,98713.74
2018-05-06T00:47:53.796Z,98714.52
2018-05-06T00:48:57.056Z,98708.68
2018-05-06T00:49:59.816Z,98706.53
2018-05-06T00:51:02.590Z,98714.74
2018-05-06T00:52:05.347Z,98709.00
2018-05-06T00:53:08.096Z,98706.35
2018-05-06T00:54:10.952Z,98707.17
2018-05-06T00:55:14.096Z,98704.42
2018-05-06T00:56:16.855Z,98704.42
2018-05-06T00:57:19.645Z,98705.88
2018-05-06T00:58:23.265Z,98712.44
2018-05-06T00:59:26.050Z,98707.36
2018-05-06T01:00:28.817Z,98709.08
2018-05-06T01:01:31.955Z,98708.62
2018-05-06T01:02:34.812Z,98716.81
2018-05-06T01:03:37.548Z,98711.38
2018-05-06T01:04:40.286Z,98707.92
2018-05-06T01:05:43.194Z,98712.83
2018-05-06T01:06:45.925Z,98711.88
2018-05-06T01:07:49.045Z,98712.59
2018-05-06T01:08:51.848Z,98710.77
2018-05-06T01:09:54.665Z,98708.84
2018-05-06T01:10:57.460Z,98708.01
2018-05-06T01:12:00.214Z,98709.08
2018-05-06T01:13:02.943Z,98710.55
2018-05-06T01:14:06.022Z,98707.92
2018-05-06T01:15:08.943Z,98706.14
2018-05-06T01:16:11.700Z,98714.50
2018-05-06T01:17:14.467Z,98712.18
2018-05-06T01:18:17.241Z,98710.75
2018-05-06T01:19:20.000Z,98714.72
2018-05-06T01:20:23.074Z,98714.66
2018-05-06T01:21:25.886Z,98711.36
2018-05-06T01:22:28.808Z,98711.88
2018-05-06T01:23:31.597Z,98719.28
2018-05-06T01:24:34.335Z,98718.38
2018-05-06T01:25:37.093Z,98711.36
2018-05-06T01:26:41.212Z,98721.16
2018-05-06T01:27:43.998Z,98716.09
2018-05-06T01:28:46.880Z,98715.28
2018-05-06T01:29:49.672Z,98716.85
2018-05-06T01:30:52.389Z,98709.15
2018-05-06T01:31:55.299Z,98714.83
2018-05-06T01:32:58.463Z,98713.50
2018-05-06T01:34:01.253Z,98709.59
2018-05-06T01:35:04.018Z,98713.42
2018-05-06T01:36:06.748Z,98708.02
2018-05-06T01:37:09.492Z,98711.63
2018-05-06T01:38:12.231Z,98709.48
2018-05-06T01:39:15.276Z,98706.37
2018-05-06T01:40:18.037Z,98712.70
2018-05-06T01:41:20.821Z,98711.76
2018-05-06T01:42:23.588Z,98712.70
2018-05-06T01:43:26.359Z,98712.23
2018-05-06T01:44:30.015Z,98707.79
2018-05-06T01:45:33.156Z,98711.13
2018-05-06T01:46:35.930Z,98707.51
2018-05-06T01:47:38.679Z,98708.93
2018-05-06T01:48:41.477Z,98706.03
2018-05-06T01:49:44.237Z,98703.61
2018-05-06T01:50:47.003Z,98699.84
2018-05-06T01:51:50.211Z,98704.52
2018-05-06T01:52:52.986Z,98702.72
2018-05-06T01:53:55.798Z,98706.20
2018-05-06T01:54:58.706Z,98700.97
2018-05-06T01:56:01.622Z,98697.14
2018-05-06T01:57:04.447Z,98697.31
2018-05-06T01:58:07.642Z,98700.84
2018-05-06T01:59:10.414Z,98695.21
2018-05-06T02:00:13.161Z,98693.78
2018-05-06T02:01:15.931Z,98699.08
2018-05-06T02:02:18.739Z,98698.98
2018-05-06T02:03:21.485Z,98697.52
2018-05-06T02:04:24.229Z,98698.81
2018-05-06T02:05:26.971Z,98698.34
2018-05-06T02:06:29.729Z,98695.72
2018-05-06T02:07:32.575Z,98704.95
2018-05-06T02:08:35.342Z,98704.02
2018-05-06T02:09:38.442Z,98702.47
2018-05-06T02:10:41.185Z,98703.28
2018-05-06T02:11:43.949Z,98703.02
2018-05-06T02:12:46.688Z,98705.73
2018-05-06T02:13:49.435Z,98700.36
2018-05-06T02:14:52.181Z,98702.94
2018-05-06T02:15:55.278Z,98703.03
2018-05-06T02:16:58.098Z,98703.72
2018-05-06T02:18:01.037Z,98706.05
2018-05-06T02:19:03.860Z,98709.91
2018-05-06T02:20:06.603Z,98708.09
2018-05-06T02:21:09.349Z,98706.17
2018-05-06T02:22:12.516Z,98709.05
2018-05-06T02:23:15.293Z,98703.67
2018-05-06T02:24:18.077Z,98699.76
2018-05-06T02:25:20.837Z,98706.59
2018-05-06T02:26:23.684Z,98705.34
2018-05-06T02:27:26.480Z,98708.34
2018-05-06T02:28:29.698Z,98700.36
2018-05-06T02:29:32.458Z,98699.89
2018-05-06T02:30:35.246Z,98696.53
2018-05-06T02:31:38.030Z,98701.94
2018-05-06T02:32:40.988Z,98698.80
2018-05-06T02:33:44.525Z,98698.91
2018-05-06T02:34:48.318Z,98695.39
2018-05-06T02:35:52.321Z,98692.70
2018-05-06T02:36:55.055Z,98689.69
2018-05-06T02:37:57.843Z,98692.42
2018-05-06T02:39:00.641Z,98691.13
2018-05-06T02:40:03.502Z,98691.25
2018-05-06T02:41:06.626Z,98689.36
2018-05-06T02:42:09.354Z,98686.73
2018-05-06T02:43:12.094Z,98693.39
2018-05-06T02:44:14.860Z,98694.75
2018-05-06T02:45:17.656Z,98692.39
2018-05-06T02:46:20.444Z,98696.69
2018-05-06T02:47:23.615Z,98698.12
2018-05-06T02:48:26.387Z,98698.34
2018-05-06T02:49:29.135Z,98699.66
2018-05-06T02:50:31.928Z,98700.27
2018-05-06T02:51:34.670Z,98692.20
2018-05-06T02:52:37.417Z,98693.83
2018-05-06T02:53:40.625Z,98690.56
2018-05-06T02:54:43.410Z,98694.61
2018-05-06T02:55:46.179Z,98691.42
2018-05-06T02:56:48.941Z,98692.14
2018-05-06T02:57:51.729Z,98690.98
2018-05-06T02:58:54.492Z,98698.77
2018-05-06T02:59:57.811Z,98697.86
2018-05-06T03:01:00.558Z,98705.87
2018-05-06T03:02:03.365Z,98699.51
2018-05-06T03:03:06.173Z,98697.41
2018-05-06T03:04:08.961Z,98698.59
2018-05-06T03:05:11.740Z,98703.67
2018-05-06T03:06:14.933Z,98699.06
2018-05-06T03:07:17.683Z,98705.44
2018-05-06T03:08:20.436Z,98700.31
2018-05-06T03:09:23.188Z,98702.90
2018-05-06T03:10:25.948Z,98704.78
2018-05-06T03:11:28.752Z,98702.63
2018-05-06T03:12:31.987Z,98699.38
2018-05-06T03:13:34.747Z,98698.64
2018-05-06T03:14:37.529Z,98698.77
2018-05-06T03:15:40.513Z,98699.51
2018-05-06T03:16:43.574Z,98700.14
2018-05-06T03:17:46.394Z,98702.03
2018-05-06T03:18:49.600Z,98704.40
2018-05-06T03:19:53.382Z,98703.19
2018-05-06T03:20:56.131Z,98696.11
2018-05-06T03:21:58.899Z,98695.25
2018-05-06T03:23:01.647Z,98693.78
2018-05-06T03:24:04.415Z,98700.19
2018-05-06T03:25:07.674Z,98701.86
2018-05-06T03:26:10.497Z,98702.04
2018-05-06T03:27:13.264Z,98703.36
2018-05-06T03:28:16.010Z,98704.61
2018-05-06T03:29:18.781Z,98697.63
2018-05-06T03:30:21.523Z,98700.42
2018-05-06T03:31:24.713Z,98702.91
2018-05-06T03:32:27.472Z,98702.56
2018-05-06T03:33:30.943Z,98703.38
2018-05-06T03:34:33.679Z,98704.41
2018-05-06T03:35:36.434Z,98704.16
2018-05-06T03:36:39.212Z,98703.08
2018-05-06T03:37:42.414Z,98708.20
2018-05-06T03:38:45.203Z,98706.35
2018-05-06T03:39:47.973Z,98705.66
2018-05-06T03:40:50.736Z,98709.87
2018-05-06T03:41:53.629Z,98706.84
2018-05-06T03:42:56.422Z,98709.67
2018-05-06T03:43:59.651Z,98709.61
2018-05-06T03:45:02.411Z,98711.84
2018-05-06T03:46:05.149Z,98714.19
2018-05-06T03:47:07.928Z,98710.06
2018-05-06T03:48:10.691Z,98708.45
2018-05-06T03:49:13.457Z,98715.48
2018-05-06T03:50:16.661Z,98708.58
2018-05-06T03:51:19.418Z,98705.32
2018-05-06T03:52:22.195Z,98710.00
2018-05-06T03:53:24.946Z,98708.75
2018-05-06T03:54:27.758Z,98708.04
2018-05-06T03:55:30.535Z,98710.81
2018-05-06T03:56:33.671Z,98719.04
2018-05-06T03:57:36.542Z,98714.28
2018-05-06T03:58:39.434Z,98717.22
2018-05-06T03:59:42.211Z,98716.98
2018-05-06T04:00:44.962Z,98718.05
2018-05-06T04:01:47.740Z,98717.84
2018-05-06T04:02:50.909Z,98713.37
2018-05-06T04:03:53.668Z,98715.39
2018-05-06T04:04:56.429Z,98712.14
2018-05-06T04:05:59.212Z,98715.88
2018-05-06T04:07:01.979Z,98709.46
2018-05-06T04:08:04.790Z,98710.41
2018-05-06T04:09:07.990Z,98710.53
2018-05-06T04:10:10.797Z,98718.35
2018-05-06T04:11:13.582Z,98715.22
2018-05-06T04:12:16.377Z,98716.16
2018-05-06T04:13:19.231Z,98715.16
2018-05-06T04:14:22.059Z,98717.45
2018-05-06T04:15:25.211Z,98714.84
2018-05-06T04:16:28.026Z,98713.16
2018-05-06T04:17:30.789Z,98715.50
2018-05-06T04:18:33.631Z,98714.96
2018-05-06T04:19:36.422Z,98713.02
2018-05-06T04:20:39.209Z,98719.25
2018-05-06T04:21:42.401Z,98717.02
2018-05-06T04:22:45.172Z,98713.75
2018-05-06T04:23:47.964Z,98709.45
2018-05-06T04:24:50.703Z,98712.92
2018-05-06T04:25:53.477Z,98716.09
2018-05-06T04:26:56.225Z,98717.00
2018-05-06T04:27:59.451Z,98720.97
2018-05-06T04:29:02.422Z,98720.63
2018-05-06T04:30:05.319Z,98724.58
2018-05-06T04:31:08.190Z,98725.86
2018-05-06T04:32:10.970Z,98728.44
2018-05-06T04:33:13.715Z,98720.34
2018-05-06T04:34:16.974Z,98722.92
2018-05-06T04:35:19.821Z,98724.81
2018-05-06T04:36:22.596Z,98718.38
2018-05-06T04:37:25.362Z,98720.78
2018-05-06T04:38:28.106Z,98722.48
2018-05-06T04:39:30.896Z,98720.72
2018-05-06T04:40:34.145Z,98715.48
2018-05-06T04:41:40.645Z,98719.58
2018-05-06T04:42:43.708Z,98730.03
2018-05-06T04:43:46.474Z,98726.22
2018-05-06T04:44:49.228Z,98731.52
2018-05-06T04:45:52.014Z,98729.92
2018-05-06T04:46:55.330Z,98727.83
2018-05-06T04:47:58.075Z,98725.39
2018-05-06T04:49:00.804Z,98731.92
2018-05-06T04:50:03.600Z,98734.47
2018-05-06T04:51:06.398Z,98732.50
2018-05-06T04:53:23.726Z,98738.09
2018-05-06T04:54:26.597Z,98738.23
2018-05-06T04:55:29.629Z,98739.61
2018-05-06T04:56:32.622Z,98744.58
2018-05-06T04:57:35.717Z,98742.02
2018-05-06T04:58:38.605Z,98742.17
2018-05-06T04:59:41.823Z,98744.11
2018-05-06T05:00:44.612Z,98750.03
2018-05-06T05:01:47.379Z,98749.23
2018-05-06T05:02:50.142Z,98741.97
2018-05-06T05:03:53.023Z,98749.89
2018-05-06T05:04:55.766Z,98746.61
2018-05-06T05:05:58.861Z,98743.22
2018-05-06T05:07:01.618Z,98747.03
2018-05-06T05:08:04.379Z,98749.77
2018-05-06T05:09:07.891Z,98746.91
2018-05-06T05:10:10.635Z,98742.62
2018-05-06T05:11:13.411Z,98750.00
2018-05-06T05:17:10.573Z,98750.22
2018-05-06T05:18:13.357Z,98752.16
2018-05-06T05:19:16.130Z,98755.95
2018-05-06T05:20:18.954Z,98749.86
2018-05-06T05:21:21.820Z,98755.70
2018-05-06T05:22:24.626Z,98745.98
2018-05-06T05:23:27.872Z,98752.92
2018-05-06T05:24:30.654Z,98750.76
2018-05-06T05:25:33.453Z,98751.20
2018-05-06T05:26:36.231Z,98759.06
2018-05-06T05:27:39.017Z,98752.88
2018-05-06T05:28:41.800Z,98753.72
2018-05-06T05:29:44.878Z,98753.99
2018-05-06T05:30:47.632Z,98758.28
2018-05-06T05:31:50.455Z,98751.59
2018-05-06T05:32:53.217Z,98753.72
2018-05-06T05:33:56.028Z,98750.48
2018-05-06T05:34:58.801Z,98753.40
2018-05-06T05:36:01.958Z,98755.16
2018-05-06T05:37:04.773Z,98751.59
2018-05-06T05:38:08.771Z,98753.41
2018-05-06T05:39:11.586Z,98760.80
2018-05-06T05:40:14.366Z,98752.88
2018-05-06T05:41:17.153Z,98759.78
2018-05-06T05:42:20.371Z,98756.06
2018-05-06T05:43:23.168Z,98753.36
2018-05-06T05:44:25.909Z,98750.79
2018-05-06T05:45:28.814Z,98756.17
2018-05-06T05:46:31.765Z,98748.75
2018-05-06T05:47:34.586Z,98755.94
2018-05-06T05:48:37.712Z,98752.69
2018-05-06T05:49:40.496Z,98753.50
2018-05-06T05:50:43.286Z,98753.83
2018-05-06T05:51:46.066Z,98757.59
2018-05-06T05:52:48.857Z,98758.84
2018-05-06T05:53:51.623Z,98754.52
2018-05-06T05:54:54.800Z,98755.84
2018-05-06T05:55:57.576Z,98756.43
2018-05-06T05:57:00.335Z,98757.66
2018-05-06T05:58:03.145Z,98758.58
2018-05-06T05:59:05.930Z,98762.33
2018-05-06T06:00:08.764Z,98761.02
2018-05-06T06:01:11.915Z,98762.88
2018-05-06T06:02:14.727Z,98764.78
2018-05-06T06:03:17.478Z,98762.03
2018-05-06T06:04:20.252Z,98758.33
2018-05-06T06:05:22.993Z,98761.89
2018-05-06T06:06:25.808Z,98760.31
2018-05-06T06:07:29.070Z,98762.95
2018-05-06T06:08:31.856Z,98762.22
2018-05-06T06:09:34.694Z,98757.63
2018-05-06T06:10:47.290Z,98755.81
2018-05-06T06:11:52.252Z,98756.38
2018-05-06T06:12:56.734Z,98762.67
2018-05-06T06:14:02.152Z,98764.95
2018-05-06T06:15:06.972Z,98762.73
2018-05-06T06:16:10.572Z,98760.20
2018-05-06T06:17:14.532Z,98760.77
2018-05-06T06:18:18.435Z,98760.72
2018-05-06T06:19:21.680Z,98764.31
2018-05-06T06:20:29.215Z,98757.20
2018-05-06T06:21:32.488Z,98762.69
2018-05-06T06:22:35.635Z,98753.17
2018-05-06T06:23:38.701Z,98755.01
2018-05-06T06:24:41.545Z,98753.91
2018-05-06T06:25:44.354Z,98757.08
2018-05-06T06:26:47.521Z,98761.02
2018-05-06T06:27:50.277Z,98760.54
2018-05-06T06:28:53.076Z,98760.00
2018-05-06T06:29:55.828Z,98756.88
2018-05-06T06:30:58.628Z,98753.25
2018-05-06T06:32:01.442Z,98758.00
2018-05-06T06:33:04.632Z,98752.91
2018-05-06T06:34:07.378Z,98757.47
2018-05-06T06:35:10.170Z,98751.08
2018-05-06T06:36:12.894Z,98745.88
2018-05-06T06:37:15.664Z,98747.09
2018-05-06T06:38:18.460Z,98749.02
2018-05-06T06:39:21.602Z,98753.11
2018-05-06T06:40:24.394Z,98753.67
2018-05-06T06:41:27.182Z,98755.06
2018-05-06T06:42:29.996Z,98748.63
2018-05-06T06:43:32.790Z,98755.95
2018-05-06T06:44:35.553Z,98746.36
2018-05-06T06:45:38.803Z,98752.44
2018-05-06T06:46:41.636Z,98750.99
2018-05-06T06:47:44.411Z,98751.54
2018-05-06T06:48:47.231Z,98754.84
2018-05-06T06:49:49.984Z,98752.30
2018-05-06T06:50:52.740Z,98750.98
2018-05-06T06:51:55.841Z,98750.78
2018-05-06T06:52:58.590Z,98749.39
2018-05-06T06:54:01.360Z,98761.32
2018-05-06T06:55:04.130Z,98757.89
2018-05-06T06:56:07.831Z,98763.34
2018-05-06T06:57:10.690Z,98762.14
2018-05-06T06:58:13.912Z,98755.30
2018-05-06T06:59:16.711Z,98760.86
2018-05-06T07:00:19.536Z,98756.23
2018-05-06T07:01:22.275Z,98763.27
2018-05-06T07:02:25.139Z,98758.19
2018-05-06T07:03:27.882Z,98759.92
2018-05-06T07:04:31.211Z,98760.98
2018-05-06T07:05:33.984Z,98761.78
2018-05-06T07:06:36.746Z,98756.61
2018-05-06T07:07:39.503Z,98763.97
2018-05-06T07:08:42.255Z,98764.36
2018-05-06T07:09:45.044Z,98774.68
2018-05-06T07:10:48.192Z,98768.34
2018-05-06T07:11:51.108Z,98766.98
2018-05-06T07:12:53.859Z,98767.06
2018-05-06T07:13:56.626Z,98770.11
2018-05-06T07:14:59.390Z,98770.20
2018-05-06T07:16:02.248Z,98767.19
2018-05-06T07:17:06.359Z,98768.73
2018-05-06T07:18:09.133Z,98765.81
2018-05-06T07:19:11.913Z,98760.91
2018-05-06T07:20:14.739Z,98761.30
2018-05-06T07:21:17.494Z,98755.52
2018-05-06T07:22:20.242Z,98756.59
2018-05-06T07:23:23.554Z,98749.89
2018-05-06T07:24:26.320Z,98747.34
2018-05-06T07:25:29.126Z,98760.20
2018-05-06T07:26:31.973Z,98761.45
2018-05-06T07:27:34.810Z,98754.68
2018-05-06T07:28:37.564Z,98755.20
2018-05-06T07:29:40.686Z,98752.45
2018-05-06T07:30:43.562Z,98759.44
2018-05-06T07:31:46.338Z,98755.44
2018-05-06T07:32:49.096Z,98754.82
2018-05-06T07:33:51.864Z,98756.64
2018-05-06T07:34:54.659Z,98755.80
2018-05-06T07:35:57.845Z,98759.46
2018-05-06T07:37:00.700Z,98756.53
2018-05-06T07:38:03.455Z,98758.52
2018-05-06T07:39:06.241Z,98754.82
2018-05-06T07:40:09.026Z,98755.64
2018-05-06T07:41:11.779Z,98753.95
2018-05-06T07:42:15.107Z,98752.64
2018-05-06T07:43:17.924Z,98755.19
2018-05-06T07:44:20.753Z,98748.53
2018-05-06T07:45:23.494Z,98754.69
2018-05-06T07:46:26.256Z,98752.99
2018-05-06T07:47:29.007Z,98757.95
2018-05-06T07:48:32.218Z,98745.79
2018-05-06T07:49:36.303Z,98761.23
2018-05-06T07:50:39.058Z,98752.99
2018-05-06T07:51:41.856Z,98749.91
2018-05-06T07:52:44.627Z,98755.08
2018-05-06T07:53:47.405Z,98753.20
2018-05-06T07:54:50.576Z,98752.38
2018-05-06T07:55:53.403Z,98763.55
2018-05-06T07:56:56.154Z,98753.70
2018-05-06T07:57:58.988Z,98750.61
2018-05-06T07:59:01.777Z,98755.81
2018-05-06T08:00:04.558Z,98751.97
2018-05-06T08:01:07.910Z,98752.17
2018-05-06T08:02:10.683Z,98764.05
2018-05-06T08:03:13.447Z,98766.61
2018-05-06T08:04:16.255Z,98758.87
2018-05-06T08:05:19.011Z,98760.38
2018-05-06T08:06:21.799Z,98763.16
2018-05-06T08:07:25.096Z,98761.15
2018-05-06T08:08:28.018Z,98760.55
2018-05-06T08:09:30.855Z,98758.95
2018-05-06T08:10:33.683Z,98755.65
2018-05-06T08:11:36.465Z,98762.42
2018-05-06T08:12:39.205Z,98759.64
2018-05-06T08:13:42.388Z,98759.56
2018-05-06T08:14:45.177Z,98758.52
2018-05-06T08:15:47.975Z,98760.09
2018-05-06T08:16:50.741Z,98756.13
2018-05-06T08:17:53.507Z,98757.61
2018-05-06T08:18:56.363Z,98760.56
2018-05-06T08:19:59.513Z,98761.27
2018-05-06T08:21:02.313Z,98761.51
2018-05-06T08:22:05.142Z,98759.35
2018-05-06T08:23:07.914Z,98771.55
2018-05-06T08:24:10.666Z,98763.77
2018-05-06T08:25:13.425Z,98758.44
2018-05-06T08:26:16.526Z,98762.50
2018-05-06T08:27:19.273Z,98764.55
2018-05-06T08:28:22.027Z,98757.70
2018-05-06T08:29:24.796Z,98761.79
2018-05-06T08:30:27.586Z,98760.98
2018-05-06T08:31:30.373Z,98763.38
2018-05-06T08:32:33.576Z,98764.31
2018-05-06T08:33:36.336Z,98759.30
2018-05-06T08:34:39.110Z,98759.81
2018-05-06T08:35:41.921Z,98757.38
2018-05-06T08:36:44.704Z,98759.38
2018-05-06T08:37:47.466Z,98757.16
2018-05-06T08:38:50.602Z,98757.98
2018-05-06T08:39:53.496Z,98757.20
2018-05-06T08:40:56.253Z,98753.58
2018-05-06T08:41:59.072Z,98760.44
2018-05-06T08:43:01.814Z,98759.86
2018-05-06T08:44:04.640Z,98758.42
2018-05-06T08:45:07.831Z,98754.77
2018-05-06T08:46:10.590Z,98759.91
2018-05-06T08:47:13.379Z,98752.95
2018-05-06T08:48:16.154Z,98760.52
2018-05-06T08:49:18.960Z,98756.31
2018-05-06T08:50:21.725Z,98772.37
2018-05-06T08:51:24.877Z,98762.15
2018-05-06T08:52:27.673Z,98763.55
2018-05-06T08:53:30.427Z,98767.66
2018-05-06T08:54:33.207Z,98757.48
2018-05-06T08:55:36.004Z,98765.27
2018-05-06T08:56:38.757Z,98758.11
2018-05-06T08:58:40.457Z,98756.50
2018-05-06T08:59:43.293Z,98750.43
2018-05-06T09:00:46.076Z,98754.25
2018-05-06T09:01:48.862Z,98752.39
2018-05-06T09:02:51.634Z,98751.77
2018-05-06T09:03:54.801Z,98750.80
2018-05-06T09:04:57.599Z,98750.11
2018-05-06T09:06:00.369Z,98752.62
2018-05-06T09:07:03.205Z,98753.16
2018-05-06T09:08:05.973Z,98749.80
2018-05-06T09:09:08.763Z,98753.73
2018-05-06T09:10:11.833Z,98757.77
2018-05-06T09:11:14.633Z,98760.17
2018-05-06T09:12:17.446Z,98755.42
2018-05-06T09:13:20.240Z,98749.58
2018-05-06T09:14:23.037Z,98753.24
2018-05-06T09:15:25.831Z,98755.30
2018-05-06T09:16:28.907Z,98754.63
2018-05-06T09:17:31.675Z,98752.75
2018-05-06T09:18:34.471Z,98763.22
2018-05-06T09:19:37.503Z,98756.31
2018-05-06T09:20:40.355Z,98756.12
2018-05-06T09:21:43.212Z,98753.56
2018-05-06T09:22:46.357Z,98755.92
2018-05-06T09:23:49.115Z,98752.84
2018-05-06T09:24:52.223Z,98752.28
2018-05-06T09:25:54.996Z,98757.94
2018-05-06T09:26:57.818Z,98755.55
2018-05-06T09:28:02.479Z,98758.20
2018-05-06T09:29:07.439Z,98756.88
2018-05-06T09:30:11.250Z,98759.75
2018-05-06T09:31:15.313Z,98751.75
2018-05-06T09:32:18.542Z,98757.58
2018-05-06T09:33:28.694Z,98752.49
2018-05-06T09:36:27.234Z,98758.00
2018-05-06T09:37:32.838Z,98761.11
2018-05-06T09:38:43.086Z,98752.67
2018-05-06T09:39:46.145Z,98756.11
2018-05-06T09:40:49.276Z,98751.53
2018-05-06T09:41:52.076Z,98754.22
2018-05-06T09:42:54.874Z,98750.16
2018-05-06T09:43:57.677Z,98756.77
2018-05-06T09:45:00.421Z,98753.88
2018-05-06T09:46:03.615Z,98755.02
2018-05-06T09:47:06.379Z,98749.48
2018-05-06T09:48:10.076Z,98752.88
2018-05-06T09:49:12.876Z,98749.25
2018-05-06T09:50:15.676Z,98750.41
2018-05-06T09:51:18.478Z,98751.22
2018-05-06T09:52:22.244Z,98753.19
2018-05-06T09:53:25.006Z,98753.23
2018-05-06T09:54:27.855Z,98753.38
2018-05-06T09:55:30.893Z,98752.29
2018-05-06T09:56:33.690Z,98748.70
2018-05-06T09:57:36.615Z,98745.17
2018-05-06T09:58:40.011Z,98743.56
2018-05-06T09:59:42.841Z,98750.72
2018-05-06T10:00:45.607Z,98747.53
2018-05-06T10:01:48.515Z,98746.81
2018-05-06T10:02:51.298Z,98745.26
2018-05-06T10:03:54.084Z,98732.40
2018-05-06T10:04:57.215Z,98730.94
2018-05-06T10:06:00.046Z,98728.05
2018-05-06T10:07:02.870Z,98728.17
2018-05-06T10:08:05.705Z,98723.84
2018-05-06T10:09:08.450Z,98728.96
2018-05-06T10:10:11.226Z,98729.61
2018-05-06T10:11:14.464Z,98734.70
2018-05-06T10:12:17.676Z,98735.60
2018-05-06T10:13:20.931Z,98740.06
2018-05-06T10:14:24.258Z,98742.84
2018-05-06T10:15:27.536Z,98738.63
2018-05-06T10:16:32.012Z,98737.72
2018-05-06T10:17:36.083Z,98738.15
2018-05-06T10:18:38.878Z,98733.55
2018-05-06T10:19:41.734Z,98731.27
2018-05-06T10:20:44.498Z,98735.17
2018-05-06T10:21:47.395Z,98738.89
2018-05-06T10:22:50.176Z,98734.55
2018-05-06T10:23:53.434Z,98737.64
2018-05-06T10:24:56.235Z,98732.12
2018-05-06T10:25:59.016Z,98729.61
2018-05-06T10:27:01.846Z,98727.19
2018-05-06T10:28:05.084Z,98735.36
2018-05-06T10:29:07.764Z,98730.87
2018-05-06T10:30:11.018Z,98730.94
2018-05-06T10:31:13.829Z,98730.81
2018-05-06T10:32:16.617Z,98730.61
2018-05-06T10:33:19.365Z,98726.78
2018-05-06T10:34:22.164Z,98714.75
2018-05-06T10:35:25.060Z,98723.76
2018-05-06T10:36:28.214Z,98720.45
2018-05-06T10:37:30.993Z,98728.80
2018-05-06T10:38:33.811Z,98726.83
2018-05-06T10:39:36.566Z,98722.58
2018-05-06T10:40:39.459Z,98715.11
2018-05-06T10:41:42.280Z,98729.85
2018-05-06T10:42:45.218Z,98714.08
2018-05-06T10:43:48.125Z,98715.23
2018-05-06T10:44:50.953Z,98710.14
2018-05-06T10:45:53.752Z,98706.86
2018-05-06T10:46:56.512Z,98711.82
2018-05-06T10:47:59.706Z,98716.91
2018-05-06T10:49:02.568Z,98716.50
2018-05-06T10:50:05.359Z,98712.16
2018-05-06T10:51:08.229Z,98700.84
2018-05-06T10:52:11.057Z,98689.54
2018-05-06T10:53:13.782Z,98708.48
2018-05-06T10:54:16.904Z,98710.50
2018-05-06T10:55:19.709Z,98698.56
2018-05-06T10:56:22.502Z,98706.56
2018-05-06T10:57:25.321Z,98694.09
2018-05-06T10:58:28.111Z,98698.14
2018-05-06T10:59:31.088Z,98701.31
2018-05-06T11:00:34.333Z,98699.31
2018-05-06T11:01:37.074Z,98694.97
2018-05-06T11:02:39.848Z,98688.85
2018-05-06T11:03:42.623Z,98694.85
2018-05-06T11:04:45.365Z,98688.36
2018-05-06T11:05:48.131Z,98695.11
2018-05-06T11:06:51.346Z,98692.19
2018-05-06T11:07:54.107Z,98684.58
2018-05-06T11:08:56.989Z,98685.28
2018-05-06T11:09:59.804Z,98687.09
2018-05-06T11:11:02.633Z,98684.69
2018-05-06T11:12:05.417Z,98680.91
2018-05-06T11:13:08.575Z,98677.76
2018-05-06T11:14:11.378Z,98676.05
2018-05-06T11:15:14.131Z,98680.31
2018-05-06T11:16:16.926Z,98677.66
2018-05-06T11:17:19.772Z,98682.61
2018-05-06T11:18:22.604Z,98670.80
2018-05-06T11:19:26.796Z,98672.34
2018-05-06T11:20:29.539Z,98666.23
2018-05-06T11:21:32.283Z,98670.42
2018-05-06T11:22:35.044Z,98670.70
2018-05-06T11:23:37.796Z,98675.80
2018-05-06T11:24:40.575Z,98671.47
2018-05-06T11:25:43.740Z,98667.14
2018-05-06T11:26:46.925Z,98669.55
2018-05-06T11:27:49.805Z,98671.22
2018-05-06T11:28:52.641Z,98661.03
2018-05-06T11:29:55.513Z,98658.78
2018-05-06T11:30:58.319Z,98668.53
2018-05-06T11:32:01.675Z,98660.61
2018-05-06T11:33:04.451Z,98658.06
2018-05-06T11:34:07.207Z,98653.91
2018-05-06T11:35:10.148Z,98643.17
2018-05-06T11:36:12.903Z,98644.13
2018-05-06T11:37:15.691Z,98649.55
2018-05-06T11:38:18.808Z,98646.67
2018-05-06T11:39:22.389Z,98648.66
2018-05-06T11:40:25.959Z,98650.77
2018-05-06T11:41:28.795Z,98648.70
2018-05-06T11:42:31.569Z,98646.41
2018-05-06T11:43:34.362Z,98649.73
2018-05-06T11:44:37.518Z,98644.45
2018-05-06T11:45:40.321Z,98638.09
2018-05-06T11:46:43.099Z,98636.09
2018-05-06T11:47:45.997Z,98637.80
2018-05-06T11:48:49.872Z,98635.75
2018-05-06T11:49:52.702Z,98634.77
2018-05-06T11:50:56.011Z,98631.00
2018-05-06T11:51:58.784Z,98643.36
2018-05-06T11:53:01.583Z,98640.57
2018-05-06T11:54:04.357Z,98638.72
2018-05-06T11:55:07.120Z,98638.52
2018-05-06T11:56:09.985Z,98642.05
2018-05-06T11:57:13.198Z,98642.17
2018-05-06T11:58:15.968Z,98638.32
2018-05-06T11:59:18.783Z,98636.56
2018-05-06T12:00:21.591Z,98634.80
2018-05-06T12:01:24.448Z,98627.53
2018-05-06T12:02:27.370Z,98622.56
2018-05-06T12:03:30.652Z,98628.02
2018-05-06T12:04:33.445Z,98637.50
2018-05-06T12:05:36.265Z,98637.41
2018-05-06T12:06:39.076Z,98639.52
2018-05-06T12:07:41.917Z,98637.30
2018-05-06T12:08:44.695Z,98642.59
2018-05-06T12:09:47.863Z,98634.05
2018-05-06T12:10:50.691Z,98632.86
2018-05-06T12:11:53.632Z,98634.06
2018-05-06T12:12:56.518Z,98629.45
2018-05-06T12:13:59.324Z,98635.97
2018-05-06T12:15:02.198Z,98632.50
2018-05-06T12:16:05.460Z,98632.16
2018-05-06T12:17:08.357Z,98627.77
2018-05-06T12:18:11.193Z,98627.47
2018-05-06T12:19:13.963Z,98622.73
2018-05-06T12:20:16.799Z,98626.86
2018-05-06T12:21:19.659Z,98623.44
2018-05-06T12:22:22.801Z,98621.80
2018-05-06T12:23:25.679Z,98612.66
2018-05-06T12:24:28.485Z,98618.25
2018-05-06T12:25:31.325Z,98612.64
2018-05-06T12:26:34.190Z,98613.51
2018-05-06T12:27:36.982Z,98614.37
2018-05-06T12:28:40.238Z,98612.05